Lapwai, Idaho
Current Conditions -  °F | °C
As of 10:56 AM on Friday 28 Nov 2014 (Local Time) from KLWS Reporting Station
Few Clouds Few Clouds  
Wind Chill: 60°   Ceiling: Unl
Heat Index: 60°   Visibility: 10mi
Dew Point: 39°   Wind: 29mph
Humidity: 46%   Direction: 200°SSW
Pressure: 29.55"   Gusts: 39mph
Location:  46.4°N, 116.8°W
Report Text: KLWS 281856Z 20025G34KT 10SM FEW080 16/04 A2955 RMK AO2 PK WND 20034/1854 SLP004 T01560039
Loading
Personal Weather Stations






























Interactive Weather Map New forecast layout! Learn more

10-Day Weather Forecast

Advertisements
Track Severe Weather on mobile